Time;durP1;ratioP1;P1;durP2;ratioP2;P2;SDS_P1;SDS_P2;PMS_P1;PMS_P2;Temp;Humidity;BMP_temperature;BMP_pressure;BME280_temperature;BME280_humidity;BME280_pressure;Samples;Min_cycle;Max_cycle;Signal;HPM_P1;HPM_P2
2022/11/13 00:02:34;;;;;;;7.68;2.80;;;3.30;99.90;;;;;;5092997;28;20043;-49
2022/11/13 00:05:19;;;;;;;8.48;3.03;;;3.30;99.90;;;;;;5066484;28;20051;-47
2022/11/13 00:08:04;;;;;;;6.68;2.20;;;3.30;99.90;;;;;;5080748;28;20110;-47
2022/11/13 00:10:50;;;;;;;4.22;1.90;;;3.20;99.90;;;;;;5089496;28;20125;-50
2022/11/13 00:13:35;;;;;;;5.45;2.00;;;3.20;99.90;;;;;;5083218;28;20063;-49
2022/11/13 00:16:21;;;;;;;4.60;2.20;;;3.30;99.90;;;;;;5056856;28;20168;-49
2022/11/13 00:19:06;;;;;;;4.70;2.80;;;3.30;99.90;;;;;;5083329;28;20043;-49
2022/11/13 00:21:53;;;;;;;6.82;3.33;;;3.30;99.90;;;;;;5073639;28;20059;-49
2022/11/13 00:24:38;;;;;;;5.68;3.38;;;3.20;99.90;;;;;;5085230;28;20047;-48
2022/11/13 00:27:24;;;;;;;9.27;3.80;;;3.20;99.90;;;;;;5088024;28;20071;-48
2022/11/13 00:30:10;;;;;;;11.15;4.82;;;3.20;99.90;;;;;;5066475;28;20643;-48
2022/11/13 00:33:03;;;;;;;11.88;5.45;;;3.30;99.90;;;;;;5082018;28;20060;-50
2022/11/13 00:35:48;;;;;;;13.70;5.25;;;3.30;99.90;;;;;;5092689;28;20059;-49
2022/11/13 00:38:34;;;;;;;14.13;5.53;;;3.30;99.90;;;;;;5073836;28;20051;-49
2022/11/13 00:41:20;;;;;;;10.32;5.90;;;3.30;99.90;;;;;;5072831;28;20051;-49
2022/11/13 00:44:05;;;;;;;10.43;5.85;;;3.30;99.90;;;;;;5055279;28;20449;-48
2022/11/13 00:46:50;;;;;;;13.25;7.15;;;3.30;99.90;;;;;;5052563;28;20063;-49
2022/11/13 00:49:36;;;;;;;13.25;6.32;;;3.30;99.90;;;;;;5069864;28;20523;-51
2022/11/13 00:52:21;;;;;;;30.35;11.75;;;3.30;99.90;;;;;;5062963;28;20787;-49
2022/11/13 00:55:07;;;;;;;21.90;10.10;;;3.20;99.90;;;;;;5057787;28;20044;-49
2022/11/13 00:57:52;;;;;;;28.48;12.40;;;3.10;99.90;;;;;;5057397;28;20052;-49
2022/11/13 01:00:39;;;;;;;25.73;11.20;;;3.10;99.90;;;;;;5055419;28;20047;-48
2022/11/13 01:03:25;;;;;;;15.68;7.25;;;3.10;99.90;;;;;;5055373;28;20159;-48
2022/11/13 01:06:13;;;;;;;15.48;7.97;;;3.10;99.90;;;;;;5057024;28;20044;-49
2022/11/13 01:08:59;;;;;;;11.25;6.15;;;2.90;99.90;;;;;;5064440;28;20113;-48
2022/11/13 01:11:44;;;;;;;11.75;5.70;;;2.90;99.90;;;;;;5054559;28;20149;-48
2022/11/13 01:14:29;;;;;;;11.30;5.38;;;2.90;99.90;;;;;;5056510;28;20048;-50
2022/11/13 01:17:14;;;;;;;10.02;4.90;;;2.90;99.90;;;;;;5055636;28;20051;-48
2022/11/13 01:20:00;;;;;;;4.72;2.60;;;3.00;99.90;;;;;;5062511;28;20064;-48
2022/11/13 01:22:45;;;;;;;7.88;2.80;;;3.00;99.90;;;;;;5085537;22;20062;-50
2022/11/13 01:25:31;;;;;;;6.00;2.35;;;2.80;99.90;;;;;;5079634;28;20097;-53
2022/11/13 01:28:16;;;;;;;8.75;3.45;;;2.70;99.90;;;;;;5090013;28;20063;-50
2022/11/13 01:31:07;;;;;;;8.85;3.55;;;2.70;99.90;;;;;;5082903;28;20047;-52
2022/11/13 01:33:52;;;;;;;7.60;3.72;;;2.80;99.90;;;;;;5080736;28;20066;-48
2022/11/13 01:36:37;;;;;;;6.93;2.50;;;2.80;99.90;;;;;;5087740;28;20051;-51
2022/11/13 01:39:23;;;;;;;5.97;2.55;;;2.70;99.90;;;;;;5083609;28;20050;-50
2022/11/13 01:42:08;;;;;;;4.75;2.80;;;2.80;99.90;;;;;;5088295;28;20047;-52
2022/11/13 01:44:57;;;;;;;2.83;1.63;;;2.80;99.90;;;;;;5087241;28;20062;-49
2022/11/13 01:47:43;;;;;;;3.75;2.63;;;2.60;99.90;;;;;;5085627;28;20051;-52
2022/11/13 01:50:28;;;;;;;3.00;2.03;;;2.70;99.90;;;;;;5085590;28;20055;-51
2022/11/13 01:53:14;;;;;;;4.43;2.22;;;2.70;99.90;;;;;;5080810;28;20132;-53
2022/11/13 01:55:59;;;;;;;9.85;2.85;;;2.70;99.90;;;;;;5084798;28;20059;-52
2022/11/13 01:58:52;;;;;;;8.18;3.50;;;2.70;99.90;;;;;;5085603;28;20046;-48
2022/11/13 02:01:37;;;;;;;5.55;3.10;;;2.70;99.90;;;;;;5083058;28;20686;-53
2022/11/13 02:04:24;;;;;;;6.93;3.80;;;2.80;99.90;;;;;;5077889;28;20046;-51
2022/11/13 02:07:13;;;;;;;10.00;5.10;;;2.70;99.90;;;;;;5077638;28;20051;-53
2022/11/13 02:10:00;;;;;;;9.40;3.45;;;2.70;99.90;;;;;;5088334;28;20122;-53
2022/11/13 02:12:50;;;;;;;7.05;3.47;;;2.80;99.90;;;;;;5080127;28;20121;-56
2022/11/13 02:15:35;;;;;;;8.95;4.18;;;2.80;99.90;;;;;;5085977;28;20054;-52
2022/11/13 02:18:22;;;;;;;9.27;4.88;;;2.80;99.90;;;;;;5079999;28;20047;-49
2022/11/13 02:21:31;;;;;;;9.82;5.45;;;2.80;99.90;;;;;;5087651;28;20098;-50
2022/11/13 02:24:24;;;;;;;11.32;6.25;;;2.80;99.90;;;;;;5081515;28;20047;-54
2022/11/13 02:27:28;;;;;;;11.45;5.82;;;2.80;99.90;;;;;;5082062;28;20051;-52
2022/11/13 02:30:31;;;;;;;11.43;5.80;;;2.80;99.90;;;;;;5073587;28;20043;-50
2022/11/13 02:33:25;;;;;;;13.98;6.90;;;2.80;99.90;;;;;;5066177;28;20051;-49
2022/11/13 02:36:12;;;;;;;12.57;6.40;;;2.80;99.90;;;;;;5090063;28;20464;-52
2022/11/13 02:39:01;;;;;;;13.02;6.68;;;2.90;99.90;;;;;;5085485;28;20512;-49
2022/11/13 02:41:46;;;;;;;12.07;6.90;;;3.10;99.90;;;;;;5086169;28;20055;-53
2022/11/13 02:44:32;;;;;;;17.35;6.47;;;3.20;99.90;;;;;;5090748;28;20073;-54
2022/11/13 02:47:17;;;;;;;16.02;7.38;;;3.10;99.90;;;;;;5086987;28;20524;-50
2022/11/13 02:50:04;;;;;;;14.15;6.68;;;3.10;99.90;;;;;;5090745;28;20055;-52
2022/11/13 02:52:49;;;;;;;12.68;6.70;;;3.10;99.90;;;;;;5089073;28;20086;-50
2022/11/13 02:55:35;;;;;;;15.82;7.05;;;3.10;99.90;;;;;;5090351;28;20190;-52
2022/11/13 02:58:20;;;;;;;18.48;7.43;;;3.00;99.90;;;;;;5087278;28;20093;-51
2022/11/13 03:01:06;;;;;;;12.00;6.55;;;3.10;99.90;;;;;;5089836;28;20129;-50
2022/11/13 03:03:51;;;;;;;12.68;7.00;;;3.00;99.90;;;;;;5090573;28;20054;-53
2022/11/13 03:06:43;;;;;;;16.27;7.45;;;3.00;99.90;;;;;;5086165;28;20142;-52
2022/11/13 03:09:29;;;;;;;17.42;7.50;;;3.00;99.90;;;;;;5088852;28;20050;-53
2022/11/13 03:12:15;;;;;;;15.85;7.65;;;3.00;99.90;;;;;;5092552;28;20690;-51
2022/11/13 03:15:01;;;;;;;19.23;8.00;;;3.10;99.90;;;;;;5094195;28;20538;-53
2022/11/13 03:17:46;;;;;;;15.93;7.35;;;3.00;99.90;;;;;;5090845;28;20054;-48
2022/11/13 03:20:32;;;;;;;14.95;7.68;;;3.00;99.90;;;;;;5092724;28;20090;-53
2022/11/13 03:23:17;;;;;;;10.60;4.60;;;3.10;99.90;;;;;;5093820;28;20140;-50
2022/11/13 03:26:05;;;;;;;7.72;3.38;;;3.10;99.90;;;;;;5084313;28;20514;-50
2022/11/13 03:28:51;;;;;;;4.15;2.03;;;2.80;99.90;;;;;;5093714;28;20109;-48
2022/11/13 03:31:36;;;;;;;4.65;2.50;;;2.60;99.90;;;;;;5092933;28;20058;-49
2022/11/13 03:34:22;;;;;;;6.30;3.20;;;2.40;99.90;;;;;;5077965;28;20193;-51
2022/11/13 03:37:07;;;;;;;5.85;3.63;;;2.30;99.90;;;;;;5093981;28;20097;-52
2022/11/13 03:39:52;;;;;;;5.78;3.28;;;2.30;99.90;;;;;;5091972;28;20062;-53
2022/11/13 03:42:38;;;;;;;17.38;8.50;;;2.30;99.90;;;;;;5090163;28;20062;-52
2022/11/13 03:45:23;;;;;;;8.55;3.65;;;2.50;99.90;;;;;;5086615;28;20051;-48
2022/11/13 03:48:08;;;;;;;9.05;3.92;;;2.40;99.90;;;;;;5093569;28;20133;-49
2022/11/13 03:50:54;;;;;;;8.35;3.05;;;2.40;99.90;;;;;;5091171;28;20136;-52
2022/11/13 03:53:39;;;;;;;5.65;3.63;;;2.40;99.90;;;;;;5092630;28;20050;-52
2022/11/13 03:56:25;;;;;;;11.05;4.30;;;2.40;99.90;;;;;;5073016;28;20138;-51
2022/11/13 03:59:10;;;;;;;10.88;5.72;;;2.50;99.90;;;;;;5076672;28;20051;-51
2022/11/13 04:01:55;;;;;;;14.02;7.88;;;2.50;99.90;;;;;;5090097;28;20522;-49
2022/11/13 04:04:41;;;;;;;16.02;7.45;;;2.60;99.90;;;;;;5092664;28;20047;-53
2022/11/13 04:07:26;;;;;;;12.70;7.60;;;2.70;99.90;;;;;;5087369;28;20558;-53
2022/11/13 04:10:12;;;;;;;13.00;7.28;;;2.80;99.90;;;;;;5091759;28;20196;-50
2022/11/13 04:12:58;;;;;;;16.15;7.90;;;2.80;99.90;;;;;;5088616;28;20055;-51
2022/11/13 04:15:43;;;;;;;15.40;8.68;;;2.90;99.90;;;;;;5093149;28;20141;-52
2022/11/13 04:18:29;;;;;;;13.50;6.97;;;2.90;99.90;;;;;;5092353;28;20105;-48
2022/11/13 04:21:15;;;;;;;12.90;6.82;;;3.00;99.90;;;;;;5093162;28;20051;-48
2022/11/13 04:24:00;;;;;;;19.02;7.85;;;2.90;99.90;;;;;;5079248;28;20581;-52
2022/11/13 04:26:45;;;;;;;16.98;7.43;;;2.90;99.90;;;;;;5092862;28;20101;-50
2022/11/13 04:29:30;;;;;;;14.82;6.85;;;2.90;99.90;;;;;;5092026;28;20580;-53
2022/11/13 04:32:16;;;;;;;11.27;6.78;;;2.80;99.90;;;;;;5090145;28;20229;-52
2022/11/13 04:35:01;;;;;;;15.25;7.22;;;2.90;99.90;;;;;;5091263;28;20051;-53
2022/11/13 04:37:47;;;;;;;13.20;7.07;;;2.80;99.90;;;;;;5091542;28;20054;-48
2022/11/13 04:40:32;;;;;;;12.98;7.18;;;2.80;99.90;;;;;;5092377;28;20101;-50
2022/11/13 04:43:17;;;;;;;11.77;6.97;;;2.80;99.90;;;;;;5080678;28;20056;-48
2022/11/13 04:46:03;;;;;;;17.70;7.47;;;2.80;99.90;;;;;;5091271;28;20058;-48
2022/11/13 04:48:48;;;;;;;15.27;6.88;;;2.80;99.90;;;;;;5090184;28;20058;-49
2022/11/13 04:51:34;;;;;;;14.65;7.05;;;2.80;99.90;;;;;;5085900;28;20121;-48
2022/11/13 04:54:19;;;;;;;16.23;6.97;;;2.80;99.90;;;;;;5071867;28;20074;-50
2022/11/13 04:57:12;;;;;;;13.95;6.97;;;2.80;99.90;;;;;;5080009;28;20055;-50
2022/11/13 04:59:58;;;;;;;5.65;3.58;;;2.80;99.90;;;;;;5090590;28;20577;-52
2022/11/13 05:02:43;;;;;;;7.25;3.58;;;2.70;99.90;;;;;;5089622;28;20790;-52
2022/11/13 05:05:29;;;;;;;8.48;4.15;;;2.50;99.90;;;;;;5071542;28;20052;-51
2022/11/13 05:08:14;;;;;;;10.30;5.13;;;2.30;99.90;;;;;;5072340;28;20531;-48
2022/11/13 05:11:00;;;;;;;21.10;9.27;;;2.30;99.90;;;;;;5081128;28;20059;-48
2022/11/13 05:13:46;;;;;;;15.43;8.02;;;2.40;99.90;;;;;;5089799;28;20050;-52
2022/11/13 05:16:35;;;;;;;14.68;7.40;;;2.40;99.90;;;;;;5091056;28;20427;-50
2022/11/13 05:19:20;;;;;;;15.48;7.00;;;2.50;99.90;;;;;;5079764;28;20059;-52
2022/11/13 05:22:07;;;;;;;16.05;7.35;;;2.60;99.90;;;;;;5084351;28;20063;-50
2022/11/13 05:24:52;;;;;;;17.58;8.38;;;2.60;99.90;;;;;;5090042;28;20161;-50
2022/11/13 05:27:37;;;;;;;15.32;8.32;;;2.60;99.90;;;;;;5086402;28;20051;-49
2022/11/13 05:30:23;;;;;;;15.32;7.53;;;2.60;99.90;;;;;;5075083;28;20055;-49
2022/11/13 05:33:09;;;;;;;13.63;7.70;;;2.60;99.90;;;;;;5087451;28;20523;-51
2022/11/13 05:35:54;;;;;;;13.98;8.23;;;2.50;99.90;;;;;;5086617;28;20051;-51
2022/11/13 05:38:40;;;;;;;16.05;8.45;;;2.50;99.90;;;;;;5086566;28;20557;-50
2022/11/13 05:41:26;;;;;;;14.35;7.18;;;2.50;99.90;;;;;;5078317;28;20182;-48
2022/11/13 05:44:12;;;;;;;13.68;7.20;;;2.60;99.90;;;;;;5083090;28;20066;-52
2022/11/13 05:46:57;;;;;;;11.25;6.68;;;2.70;99.90;;;;;;5086853;28;20546;-48
2022/11/13 05:49:42;;;;;;;11.07;6.75;;;2.70;99.90;;;;;;5084845;28;20055;-52
2022/11/13 05:52:28;;;;;;;16.85;8.50;;;2.80;99.90;;;;;;5085209;28;20043;-51
2022/11/13 05:55:14;;;;;;;13.50;6.90;;;2.80;99.90;;;;;;5085300;28;20117;-48
2022/11/13 05:57:59;;;;;;;15.15;7.18;;;2.80;99.90;;;;;;5091176;28;20046;-49
2022/11/13 06:00:44;;;;;;;12.43;6.70;;;2.70;99.90;;;;;;5084409;28;20044;-52
2022/11/13 06:03:29;;;;;;;11.00;5.70;;;2.70;99.90;;;;;;5084282;28;20416;-48
2022/11/13 06:06:17;;;;;;;11.20;6.38;;;2.60;99.90;;;;;;5090600;28;20043;-49
2022/11/13 06:09:05;;;;;;;11.75;6.10;;;2.60;99.90;;;;;;5090569;28;20550;-52
2022/11/13 06:11:50;;;;;;;12.27;7.20;;;2.60;99.90;;;;;;5090259;28;20097;-51
2022/11/13 06:14:36;;;;;;;17.55;9.02;;;2.50;99.90;;;;;;5083769;28;20094;-52
2022/11/13 06:17:21;;;;;;;14.25;7.25;;;2.50;99.90;;;;;;5084484;28;20519;-50
2022/11/13 06:20:07;;;;;;;13.07;7.38;;;2.40;99.90;;;;;;5090292;28;20047;-48
2022/11/13 06:22:53;;;;;;;11.95;6.97;;;2.60;99.90;;;;;;5089968;28;20128;-50
2022/11/13 06:25:38;;;;;;;14.48;7.10;;;2.60;99.90;;;;;;5090276;28;20043;-51
2022/11/13 06:28:23;;;;;;;10.23;6.55;;;2.60;99.90;;;;;;5078173;28;20055;-47
2022/11/13 06:31:12;;;;;;;11.60;6.85;;;2.60;99.90;;;;;;5091377;28;20066;-53
2022/11/13 06:33:59;;;;;;;;;;;2.60;99.90;;;;;;5086032;28;20121;-49
2022/11/13 06:36:44;;;;;;;13.00;7.20;;;2.60;99.90;;;;;;5090350;28;19927;-50
2022/11/13 06:39:30;;;;;;;21.00;8.70;;;2.60;99.90;;;;;;5092096;28;20493;-48
2022/11/13 06:42:15;;;;;;;17.95;9.00;;;2.60;99.90;;;;;;5090925;28;20113;-49
2022/11/13 06:45:00;;;;;;;16.80;9.77;;;2.60;99.90;;;;;;5094239;28;20513;-48
2022/11/13 06:47:46;;;;;;;15.68;8.32;;;2.60;99.90;;;;;;5094223;28;20584;-48
2022/11/13 06:50:31;;;;;;;16.70;9.45;;;2.60;99.90;;;;;;5095302;28;20411;-49
2022/11/13 06:53:17;;;;;;;17.63;8.73;;;2.70;99.90;;;;;;5088599;28;20136;-51
2022/11/13 06:56:05;;;;;;;14.70;8.52;;;2.70;99.90;;;;;;5094409;28;20137;-54
2022/11/13 06:58:50;;;;;;;19.42;10.40;;;2.70;99.90;;;;;;5075011;28;20050;-50
2022/11/13 07:01:36;;;;;;;12.75;6.50;;;2.70;99.90;;;;;;5079775;28;20062;-53
2022/11/13 07:04:21;;;;;;;20.00;10.23;;;2.60;99.90;;;;;;5094952;28;20519;-48
2022/11/13 07:07:07;;;;;;;19.15;10.63;;;2.60;99.90;;;;;;5093989;28;20050;-52
2022/11/13 07:09:52;;;;;;;19.35;10.65;;;2.60;99.90;;;;;;5090681;28;20066;-48
2022/11/13 07:12:38;;;;;;;16.65;10.75;;;2.50;99.90;;;;;;5093595;28;20107;-53
2022/11/13 07:15:23;;;;;;;19.08;10.27;;;2.50;99.90;;;;;;5094423;28;20424;-49
2022/11/13 07:18:09;;;;;;;17.92;10.02;;;2.50;99.90;;;;;;5077838;28;20186;-51
2022/11/13 07:20:54;;;;;;;32.80;13.50;;;2.50;99.90;;;;;;5089393;28;20055;-49
2022/11/13 07:23:42;;;;;;;35.13;14.32;;;2.50;99.90;;;;;;5101697;22;20059;-48
2022/11/13 07:26:27;;;;;;;20.20;9.38;;;2.50;99.90;;;;;;5095910;28;20518;-49
2022/11/13 07:29:13;;;;;;;22.70;11.73;;;2.50;99.90;;;;;;5114220;28;20164;-49
2022/11/13 07:31:58;;;;;;;20.50;10.75;;;2.50;99.90;;;;;;5093326;28;20194;-48
2022/11/13 07:34:43;;;;;;;18.17;10.15;;;2.50;99.90;;;;;;5082756;28;20105;-48
2022/11/13 07:37:29;;;;;;;26.58;12.75;;;2.60;99.90;;;;;;5071422;28;20126;-46
2022/11/13 07:40:14;;;;;;;44.72;18.25;;;2.60;99.90;;;;;;5058037;28;20417;-49
2022/11/13 07:43:01;;;;;;;24.70;11.48;;;2.60;99.90;;;;;;5069088;28;20047;-48
2022/11/13 07:45:53;;;;;;;19.52;10.57;;;2.70;99.90;;;;;;5090015;28;20046;-50
2022/11/13 07:48:38;;;;;;;18.13;9.80;;;2.70;99.90;;;;;;5090593;28;20156;-46
2022/11/13 07:51:23;;;;;;;14.05;8.02;;;2.70;99.90;;;;;;5087799;28;20062;-49
2022/11/13 07:54:09;;;;;;;17.98;9.35;;;2.80;99.90;;;;;;5091515;28;20071;-47
2022/11/13 07:56:54;;;;;;;23.55;10.95;;;3.00;99.90;;;;;;5069221;28;20063;-48
2022/11/13 07:59:40;;;;;;;23.02;11.02;;;3.10;99.90;;;;;;5070993;28;20056;-47
2022/11/13 08:02:25;;;;;;;28.80;13.57;;;3.30;99.90;;;;;;5091530;28;20058;-47
2022/11/13 08:05:11;;;;;;;28.60;11.82;;;3.40;99.90;;;;;;5079849;28;20507;-47
2022/11/13 08:07:56;;;;;;;20.10;9.55;;;3.50;99.90;;;;;;5067260;28;20052;-48
2022/11/13 08:10:42;;;;;;;16.58;9.05;;;3.60;99.90;;;;;;5072679;28;20523;-46
2022/11/13 08:13:27;;;;;;;18.23;9.32;;;3.80;99.90;;;;;;5072002;28;20114;-47
2022/11/13 08:16:12;;;;;;;21.80;10.68;;;3.90;99.90;;;;;;5065747;28;20558;-50
2022/11/13 08:18:58;;;;;;;17.90;9.13;;;4.00;99.90;;;;;;5072325;28;20048;-48
2022/11/13 08:21:43;;;;;;;15.65;8.38;;;4.00;99.90;;;;;;5072492;28;20202;-50
2022/11/13 08:24:28;;;;;;;17.05;7.97;;;4.10;99.90;;;;;;5071302;28;20500;-49
2022/11/13 08:27:14;;;;;;;16.77;7.82;;;4.20;99.90;;;;;;5060921;28;20502;-49
2022/11/13 08:29:59;;;;;;;17.30;9.48;;;4.40;99.90;;;;;;5091577;28;20177;-48
2022/11/13 08:32:46;;;;;;;17.42;8.85;;;4.60;99.90;;;;;;5088729;28;20055;-50
2022/11/13 08:35:32;;;;;;;12.75;7.40;;;4.70;99.90;;;;;;5077755;28;20113;-48
2022/11/13 08:38:17;;;;;;;13.40;7.20;;;4.80;99.90;;;;;;5064286;28;20114;-49
2022/11/13 08:41:04;;;;;;;11.85;6.97;;;5.00;99.90;;;;;;5080234;28;20561;-49
2022/11/13 08:43:54;;;;;;;12.10;6.40;;;5.10;99.90;;;;;;5076278;28;20416;-49
2022/11/13 08:46:39;;;;;;;12.18;6.28;;;5.30;99.90;;;;;;5077481;28;20397;-49
2022/11/13 08:49:24;;;;;;;14.60;6.82;;;5.40;99.90;;;;;;5072380;28;20117;-48
2022/11/13 08:52:10;;;;;;;12.90;6.95;;;5.50;99.90;;;;;;5084027;28;20165;-50
2022/11/13 08:54:55;;;;;;;11.10;6.35;;;5.70;99.90;;;;;;5092650;28;20100;-48
2022/11/13 08:57:41;;;;;;;12.70;6.30;;;5.80;99.90;;;;;;5081360;28;20106;-48
2022/11/13 09:00:28;;;;;;;12.32;6.78;;;5.90;99.90;;;;;;5080665;28;20073;-49
2022/11/13 09:03:13;;;;;;;12.93;7.15;;;6.00;99.90;;;;;;5078827;28;20117;-48
2022/11/13 09:05:59;;;;;;;9.98;5.55;;;6.10;99.90;;;;;;5091003;28;20050;-49
2022/11/13 09:08:44;;;;;;;12.23;6.10;;;6.30;99.90;;;;;;5087096;28;20400;-48
2022/11/13 09:11:29;;;;;;;8.43;5.82;;;6.40;99.90;;;;;;5085054;28;20056;-48
2022/11/13 09:14:15;;;;;;;11.35;6.45;;;6.50;99.90;;;;;;5072421;28;20586;-48
2022/11/13 09:17:00;;;;;;;9.18;6.30;;;6.50;99.90;;;;;;5071354;28;20131;-49
2022/11/13 09:19:46;;;;;;;10.00;5.68;;;6.70;99.90;;;;;;5085990;28;20051;-49
2022/11/13 09:22:32;;;;;;;7.72;5.45;;;6.70;99.90;;;;;;5067897;28;20055;-50
2022/11/13 09:25:18;;;;;;;9.75;5.75;;;6.60;99.90;;;;;;5071285;28;20105;-48
2022/11/13 09:28:04;;;;;;;12.90;6.88;;;6.70;99.90;;;;;;5070649;28;20055;-49
2022/11/13 09:30:49;;;;;;;9.90;5.88;;;6.60;99.90;;;;;;5070817;28;20043;-48
2022/11/13 09:33:34;;;;;;;10.63;5.13;;;6.60;99.90;;;;;;5091888;28;20055;-48
2022/11/13 09:36:20;;;;;;;8.50;5.30;;;6.70;99.90;;;;;;5076151;28;20176;-49
2022/11/13 09:39:05;;;;;;;8.20;5.03;;;6.80;99.90;;;;;;5091626;28;20514;-49
2022/11/13 09:42:07;;;;;;;8.05;5.10;;;6.90;99.90;;;;;;5063802;28;20429;-50
2022/11/13 09:44:58;;;;;;;6.85;4.55;;;7.00;99.90;;;;;;5080529;28;20075;-52
2022/11/13 09:47:45;;;;;;;9.23;4.75;;;7.10;99.90;;;;;;5071940;28;20052;-50
2022/11/13 09:50:32;;;;;;;8.25;4.35;;;7.20;99.90;;;;;;5063222;28;20052;-50
2022/11/13 09:53:17;;;;;;;6.85;4.72;;;7.30;99.90;;;;;;5063393;28;20055;-48
2022/11/13 09:56:23;;;;;;;7.55;3.83;;;7.20;99.90;;;;;;5053935;28;20503;-49
2022/11/13 09:59:35;;;;;;;4.90;3.15;;;7.30;99.90;;;;;;5079843;28;20047;-47
2022/11/13 10:02:46;;;;;;;6.13;3.42;;;7.40;99.90;;;;;;5088154;28;20043;-49
2022/11/13 10:05:53;;;;;;;9.27;3.80;;;7.40;99.90;;;;;;5082138;28;20051;-48
2022/11/13 10:09:02;;;;;;;6.13;3.00;;;7.60;99.90;;;;;;5078403;28;20055;-48
2022/11/13 10:11:57;;;;;;;6.25;3.70;;;7.70;99.90;;;;;;5088988;28;20047;-49
2022/11/13 10:14:46;;;;;;;7.88;4.30;;;7.80;99.90;;;;;;5076570;28;20151;-49
2022/11/13 10:17:42;;;;;;;6.72;3.63;;;8.00;99.90;;;;;;5085321;28;20129;-50
2022/11/13 10:20:38;;;;;;;4.93;2.97;;;8.20;99.90;;;;;;5087610;28;20051;-50
2022/11/13 10:23:30;;;;;;;6.50;3.30;;;8.20;99.90;;;;;;5078263;28;20052;-50
2022/11/13 10:26:19;;;;;;;6.57;4.07;;;8.40;99.90;;;;;;5089800;28;20414;-49
2022/11/13 10:29:17;;;;;;;7.28;4.35;;;8.50;99.90;;;;;;5086278;28;20047;-49
2022/11/13 10:32:22;;;;;;;5.88;3.30;;;8.70;99.90;;;;;;5076137;28;20744;-51
2022/11/13 10:35:07;;;;;;;6.00;3.35;;;9.00;99.90;;;;;;5077809;28;20167;-49
2022/11/13 10:38:10;;;;;;;6.53;3.35;;;9.00;99.90;;;;;;5068305;28;20098;-50
2022/11/13 10:41:14;;;;;;;6.30;3.65;;;9.10;99.90;;;;;;5072732;28;20415;-49
2022/11/13 10:44:28;;;;;;;4.53;3.03;;;9.30;99.90;;;;;;5080414;28;20051;-49
2022/11/13 10:47:17;;;;;;;5.15;3.35;;;9.40;99.90;;;;;;5085372;28;20432;-48
2022/11/13 10:50:27;;;;;;;6.15;3.38;;;9.50;99.90;;;;;;5081241;28;20113;-50
2022/11/13 10:53:16;;;;;;;5.68;3.28;;;9.50;99.90;;;;;;5088144;28;20093;-49
2022/11/13 10:56:10;;;;;;;;;;;9.40;99.90;;;;;;5086110;28;20415;-49
2022/11/13 10:59:15;;;;;;;5.78;2.70;;;9.40;99.90;;;;;;5057660;28;19967;-49
2022/11/13 11:02:08;;;;;;;4.93;2.45;;;9.40;99.90;;;;;;5084377;28;20055;-49
2022/11/13 11:05:14;;;;;;;6.05;2.72;;;9.60;99.90;;;;;;5074539;28;20542;-49
2022/11/13 11:08:01;;;;;;;5.35;2.47;;;9.80;99.90;;;;;;5075080;28;20179;-49
2022/11/13 11:14:13;;;;;;;3.70;2.63;;;10.10;99.90;;;;;;5075041;28;20188;-52
2022/11/13 11:17:00;;;;;;;3.30;1.90;;;10.10;99.90;;;;;;5080135;28;20106;-51
2022/11/13 11:19:53;;;;;;;4.25;2.15;;;10.20;99.90;;;;;;5070546;28;20055;-50
2022/11/13 11:22:40;;;;;;;3.50;2.30;;;10.30;99.90;;;;;;5082737;28;20526;-49
2022/11/13 11:25:37;;;;;;;2.75;2.08;;;10.50;99.90;;;;;;5082998;28;20046;-50
2022/11/13 11:28:35;;;;;;;3.63;2.10;;;10.50;99.90;;;;;;5089945;28;20120;-50
2022/11/13 11:31:36;;;;;;;2.40;1.95;;;10.60;99.90;;;;;;5078462;28;20043;-49
2022/11/13 11:34:34;;;;;;;3.75;2.30;;;10.60;99.90;;;;;;5093866;28;20058;-50
2022/11/13 11:37:26;;;;;;;3.70;2.03;;;10.60;99.90;;;;;;5071248;28;20599;-49
2022/11/13 11:40:28;;;;;;;2.97;1.73;;;10.70;99.90;;;;;;5070310;28;20517;-50
2022/11/13 11:43:25;;;;;;;5.32;2.40;;;10.80;99.90;;;;;;5085210;28;20127;-50
2022/11/13 11:46:22;;;;;;;2.67;1.90;;;10.90;99.90;;;;;;5080473;28;20508;-49
2022/11/13 11:49:09;;;;;;;4.00;2.55;;;11.00;99.90;;;;;;5093080;28;20047;-51
2022/11/13 11:52:22;;;;;;;3.60;2.38;;;11.00;99.90;;;;;;5071963;28;20174;-49
2022/11/13 11:55:30;;;;;;;2.05;1.50;;;11.10;99.90;;;;;;5073955;28;20506;-51
2022/11/13 11:59:02;;;;;;;5.32;2.10;;;11.10;99.90;;;;;;5077297;28;20051;-50
2022/11/13 12:01:50;;;;;;;2.72;1.83;;;11.20;99.90;;;;;;5025000;28;20050;-50
2022/11/13 12:05:14;;;;;;;4.25;1.80;;;11.20;99.90;;;;;;5082970;28;20175;-50
2022/11/13 12:08:32;;;;;;;3.63;1.83;;;11.20;99.90;;;;;;5091001;28;20507;-51
2022/11/13 12:11:31;;;;;;;3.15;1.60;;;11.20;99.90;;;;;;5053227;28;20064;-50
2022/11/13 12:14:28;;;;;;;2.42;1.85;;;11.20;99.90;;;;;;5061997;28;20577;-48
2022/11/13 12:17:29;;;;;;;6.50;4.43;;;11.20;99.90;;;;;;5093470;28;20117;-48
2022/11/13 12:20:42;;;;;;;8.93;6.38;;;11.20;99.90;;;;;;5073986;28;20070;-50
2022/11/13 12:23:40;;;;;;;8.75;5.95;;;10.90;99.90;;;;;;5046759;28;20076;-50
2022/11/13 12:26:35;;;;;;;13.18;6.80;;;10.70;99.90;;;;;;5072746;28;20059;-49
2022/11/13 12:29:31;;;;;;;11.50;7.28;;;10.50;99.90;;;;;;5064880;28;20051;-51
2022/11/13 12:32:22;;;;;;;10.55;7.22;;;10.30;99.90;;;;;;5077635;28;20047;-49
2022/11/13 12:35:16;;;;;;;13.27;7.35;;;10.20;99.90;;;;;;5085154;28;20055;-48
2022/11/13 12:38:09;;;;;;;12.95;6.93;;;10.00;99.90;;;;;;5085357;28;20047;-49
2022/11/13 12:41:11;;;;;;;9.35;6.80;;;9.90;99.90;;;;;;5091484;28;20051;-49
2022/11/13 12:44:24;;;;;;;11.90;7.22;;;9.80;99.90;;;;;;5075079;28;20063;-49
2022/11/13 12:47:10;;;;;;;11.00;6.90;;;9.70;99.90;;;;;;5069054;28;20078;-51
2022/11/13 12:50:19;;;;;;;12.35;8.43;;;9.80;99.90;;;;;;5071286;28;20066;-50
2022/11/13 12:53:09;;;;;;;13.13;7.60;;;9.80;99.90;;;;;;5068293;28;20052;-50
2022/11/13 12:56:00;;;;;;;12.15;7.25;;;9.80;99.90;;;;;;5071461;28;20512;-49
2022/11/13 12:59:10;;;;;;;12.48;7.65;;;9.90;99.90;;;;;;5070807;28;20111;-49
2022/11/13 13:02:44;;;;;;;12.55;7.65;;;9.90;99.90;;;;;;5066965;28;20059;-49
2022/11/13 13:06:06;;;;;;;14.88;7.45;;;9.90;99.90;;;;;;5067525;28;20519;-49
2022/11/13 13:09:19;;;;;;;15.30;7.28;;;10.00;99.90;;;;;;5070330;28;20420;-47
2022/11/13 13:12:39;;;;;;;12.45;7.40;;;10.10;99.90;;;;;;5066710;28;20052;-50
2022/11/13 13:15:30;;;;;;;10.15;6.75;;;10.20;99.90;;;;;;5085246;28;20194;-49
2022/11/13 13:18:16;;;;;;;11.35;7.72;;;10.20;99.90;;;;;;5081394;28;20174;-48
2022/11/13 13:21:11;;;;;;;9.73;6.93;;;10.10;99.90;;;;;;5088538;28;20139;-48
2022/11/13 13:24:06;;;;;;;10.77;7.22;;;10.20;99.90;;;;;;5070022;28;20059;-48
2022/11/13 13:26:51;;;;;;;11.82;7.55;;;10.20;99.90;;;;;;5071291;28;20052;-49
2022/11/13 13:29:39;;;;;;;10.32;7.25;;;10.30;99.90;;;;;;5081241;28;20063;-50
2022/11/13 13:32:30;;;;;;;11.13;6.78;;;10.30;99.90;;;;;;5073939;28;20147;-48
2022/11/13 13:35:50;;;;;;;10.30;6.70;;;10.40;99.90;;;;;;5070999;28;20060;-47
2022/11/13 13:38:46;;;;;;;9.85;6.50;;;10.40;99.90;;;;;;5066705;28;20125;-48
2022/11/13 13:41:54;;;;;;;9.93;6.20;;;10.50;99.90;;;;;;5077625;28;20058;-47
2022/11/13 13:45:19;;;;;;;9.52;6.43;;;10.40;99.90;;;;;;5085858;28;20055;-48
2022/11/13 13:48:12;;;;;;;9.38;6.25;;;10.40;99.90;;;;;;5051718;28;20052;-47
2022/11/13 13:50:59;;;;;;;8.43;5.72;;;10.50;99.90;;;;;;5061322;28;20063;-47
2022/11/13 13:53:46;;;;;;;9.20;5.63;;;10.50;99.90;;;;;;5071207;28;20044;-47
2022/11/13 13:56:33;;;;;;;8.43;5.10;;;10.60;99.90;;;;;;5070844;28;20055;-49
2022/11/13 13:59:20;;;;;;;7.05;4.60;;;10.70;99.90;;;;;;5069604;28;20563;-49
2022/11/13 14:02:15;;;;;;;6.25;4.32;;;10.70;99.90;;;;;;5076239;28;20062;-50
2022/11/13 14:05:01;;;;;;;7.03;4.85;;;10.70;99.90;;;;;;5074151;28;20129;-48
2022/11/13 14:07:46;;;;;;;9.25;5.28;;;10.70;99.90;;;;;;5071430;28;20133;-54
2022/11/13 14:10:34;;;;;;;9.00;4.90;;;10.70;99.90;;;;;;5068548;28;20050;-48
2022/11/13 14:13:25;;;;;;;6.78;4.25;;;10.70;99.90;;;;;;5090615;28;20530;-49
2022/11/13 14:16:11;;;;;;;7.13;5.00;;;10.70;99.90;;;;;;5050544;28;20527;-48
2022/11/13 14:19:05;;;;;;;6.18;4.03;;;10.70;99.90;;;;;;5084815;28;20277;-49
2022/11/13 14:21:58;;;;;;;7.43;4.30;;;10.60;99.90;;;;;;5090978;28;20137;-48
2022/11/13 14:24:57;;;;;;;7.70;4.60;;;10.60;99.90;;;;;;5078399;28;20405;-48
2022/11/13 14:27:43;;;;;;;7.82;4.50;;;10.50;99.90;;;;;;5082203;28;20411;-52
2022/11/13 14:30:29;;;;;;;11.25;6.10;;;10.30;99.90;;;;;;5088732;28;20062;-49
2022/11/13 14:33:20;;;;;;;11.07;6.90;;;10.10;99.90;;;;;;5077748;28;20805;-55
2022/11/13 14:36:06;;;;;;;12.93;7.57;;;9.70;99.90;;;;;;5066637;28;20056;-48
2022/11/13 14:38:51;;;;;;;15.90;8.27;;;9.40;99.90;;;;;;5070439;28;20055;-48
2022/11/13 14:41:48;;;;;;;14.02;9.13;;;9.10;99.90;;;;;;5084999;28;20780;-48
2022/11/13 14:44:34;;;;;;;15.18;9.18;;;8.80;99.90;;;;;;5067153;28;20055;-49
2022/11/13 14:47:25;;;;;;;19.63;9.77;;;8.60;99.90;;;;;;5070134;28;20058;-49
2022/11/13 14:50:14;;;;;;;15.98;10.02;;;8.50;99.90;;;;;;5066983;28;20063;-47